createdAt,value
2023-04-06T00:01:16.589Z,101103.65
2023-04-06T00:03:44.478Z,101102.27
2023-04-06T00:06:12.398Z,101100.21
2023-04-06T00:08:43.517Z,101096.96
2023-04-06T00:11:12.653Z,101097.00
2023-04-06T00:13:46.339Z,101093.21
2023-04-06T00:16:17.708Z,101094.30
2023-04-06T00:18:46.445Z,101096.31
2023-04-06T00:21:16.152Z,101094.09
2023-04-06T00:23:43.931Z,101090.94
2023-04-06T00:26:12.012Z,101088.84
2023-04-06T00:28:45.992Z,101085.52
2023-04-06T00:31:17.356Z,101084.99
2023-04-06T00:33:45.228Z,101084.27
2023-04-06T00:36:12.842Z,101081.30
2023-04-06T00:38:42.254Z,101081.08
2023-04-06T00:41:12.239Z,101077.72
2023-04-06T00:43:46.017Z,101079.97
2023-04-06T00:46:16.262Z,101075.80
2023-04-06T00:48:45.457Z,101073.35
2023-04-06T00:51:15.393Z,101073.54
2023-04-06T00:53:43.969Z,101071.25
2023-04-06T00:56:12.530Z,101072.80
2023-04-06T00:58:49.740Z,101069.83
2023-04-06T01:01:17.825Z,101070.16
2023-04-06T01:03:49.341Z,101072.08
2023-04-06T01:06:17.751Z,101066.66
2023-04-06T01:08:47.224Z,101068.02
2023-04-06T01:11:25.046Z,101067.14
2023-04-06T01:13:53.395Z,101064.15
2023-04-06T01:16:29.903Z,101068.86
2023-04-06T01:19:11.177Z,101065.88
2023-04-06T01:21:41.549Z,101062.66
2023-04-06T01:24:29.874Z,101061.63
2023-04-06T01:27:03.560Z,101057.74
2023-04-06T01:29:43.719Z,101053.58
2023-04-06T01:32:12.308Z,101048.35
2023-04-06T01:34:47.236Z,101051.18
2023-04-06T01:37:16.130Z,101047.00
2023-04-06T01:39:44.999Z,101050.86
2023-04-06T01:42:16.365Z,101046.14
2023-04-06T01:44:44.500Z,101047.89
2023-04-06T01:47:16.149Z,101046.55
2023-04-06T01:49:44.049Z,101045.88
2023-04-06T01:52:11.789Z,101041.20
2023-04-06T01:54:40.342Z,101039.10
2023-04-06T01:57:16.202Z,101035.96
2023-04-06T01:59:47.622Z,101038.25
2023-04-06T02:02:22.055Z,101037.02
2023-04-06T02:04:57.873Z,101035.96
2023-04-06T02:07:26.368Z,101033.48
2023-04-06T02:09:55.978Z,101030.04
2023-04-06T02:12:27.118Z,101027.06
2023-04-06T02:14:55.570Z,101024.44
2023-04-06T02:17:24.488Z,101024.64
2023-04-06T02:19:52.024Z,101023.95
2023-04-06T02:22:20.005Z,101020.85
2023-04-06T02:24:47.632Z,101021.04
2023-04-06T02:27:16.040Z,101019.04
2023-04-06T02:29:47.491Z,101018.92
2023-04-06T02:32:17.507Z,101016.55
2023-04-06T02:34:45.355Z,101016.23
2023-04-06T02:37:13.591Z,101013.17
2023-04-06T02:39:41.726Z,101012.21
2023-04-06T02:42:10.058Z,101007.61
2023-04-06T02:44:37.839Z,101008.09
2023-04-06T02:47:05.432Z,101010.14
2023-04-06T02:49:33.337Z,101008.48
2023-04-06T02:52:01.134Z,101007.85
2023-04-06T02:54:32.362Z,101006.34
2023-04-06T02:57:01.804Z,101002.48
2023-04-06T02:59:41.945Z,101007.83
2023-04-06T03:02:15.151Z,101010.20
2023-04-06T03:04:45.543Z,101015.88
2023-04-06T03:07:21.233Z,101014.75
2023-04-06T03:09:48.982Z,101013.45
2023-04-06T03:12:18.203Z,101014.89
2023-04-06T03:15:06.859Z,101013.73
2023-04-06T03:17:35.446Z,101012.60
2023-04-06T03:20:05.537Z,101015.44
2023-04-06T03:22:34.164Z,101016.38
2023-04-06T03:25:03.821Z,101016.96
2023-04-06T03:27:33.172Z,101019.70
2023-04-06T03:30:01.312Z,101018.89
2023-04-06T03:32:33.077Z,101019.37
2023-04-06T03:35:00.938Z,101021.00
2023-04-06T03:37:28.635Z,101024.60
2023-04-06T03:39:57.200Z,101024.68
2023-04-06T03:42:24.800Z,101023.91
2023-04-06T03:44:57.266Z,101020.73
2023-04-06T03:47:26.259Z,101016.33
2023-04-06T03:49:57.246Z,101016.34
2023-04-06T03:52:26.684Z,101016.45
2023-04-06T03:54:54.745Z,101017.63
2023-04-06T03:57:22.482Z,101013.89
2023-04-06T03:59:50.602Z,101019.09
2023-04-06T04:02:18.706Z,101016.05
2023-04-06T04:04:46.939Z,101016.69
2023-04-06T04:07:14.805Z,101015.60
2023-04-06T04:09:45.496Z,101019.20
2023-04-06T04:12:15.093Z,101016.79
2023-04-06T04:14:49.461Z,101020.87
2023-04-06T04:17:18.365Z,101019.84
2023-04-06T04:19:46.981Z,101020.70
2023-04-06T04:22:18.435Z,101017.48
2023-04-06T04:24:46.498Z,101017.44
2023-04-06T04:27:14.647Z,101014.05
2023-04-06T04:29:47.803Z,101012.57
2023-04-06T04:32:17.112Z,101008.98
2023-04-06T04:34:45.733Z,101010.27
2023-04-06T04:37:20.138Z,101011.09
2023-04-06T04:39:51.767Z,101007.12
2023-04-06T04:42:19.747Z,101007.83
2023-04-06T04:44:51.555Z,101007.70
2023-04-06T04:47:28.395Z,101004.00
2023-04-06T04:49:57.490Z,101003.64
2023-04-06T04:52:25.439Z,101004.19
2023-04-06T04:54:59.725Z,100999.00
2023-04-06T04:57:29.316Z,101001.13
2023-04-06T04:59:58.108Z,100999.39
2023-04-06T05:02:26.170Z,100997.14
2023-04-06T05:05:20.756Z,100995.73
2023-04-06T05:07:48.587Z,100993.88
2023-04-06T05:10:25.258Z,100992.24
2023-04-06T05:12:59.756Z,100991.95
2023-04-06T05:15:27.930Z,100997.30
2023-04-06T05:17:58.771Z,100997.88
2023-04-06T05:20:31.454Z,100996.21
2023-04-06T05:23:01.382Z,100996.56
2023-04-06T05:25:37.864Z,100999.88
2023-04-06T05:28:14.598Z,100997.79
2023-04-06T05:30:42.869Z,100999.12
2023-04-06T05:33:11.395Z,100997.12
2023-04-06T05:36:08.361Z,101000.92
2023-04-06T05:38:40.046Z,101001.14
2023-04-06T05:41:17.748Z,100998.88
2023-04-06T05:43:46.290Z,100995.98
2023-04-06T05:46:16.771Z,100994.23
2023-04-06T05:48:45.599Z,100989.64
2023-04-06T05:51:13.706Z,100987.91
2023-04-06T05:53:47.442Z,100989.20
2023-04-06T05:56:17.472Z,100985.09
2023-04-06T05:58:45.554Z,100980.91
2023-04-06T06:01:17.841Z,100981.44
2023-04-06T06:03:47.648Z,100980.40
2023-04-06T06:06:18.019Z,100979.17
2023-04-06T06:09:08.797Z,100978.22
2023-04-06T06:11:41.450Z,100973.13
2023-04-06T06:14:09.861Z,100973.34
2023-04-06T06:16:39.606Z,100968.61
2023-04-06T06:19:08.380Z,100970.16
2023-04-06T06:21:36.878Z,100974.54
2023-04-06T06:24:16.296Z,100966.10
2023-04-06T06:26:44.177Z,100969.23
2023-04-06T06:29:12.383Z,100966.96
2023-04-06T06:31:40.529Z,100970.27
2023-04-06T06:34:08.453Z,100966.52
2023-04-06T06:36:37.349Z,100964.67
2023-04-06T06:39:08.118Z,100962.19
2023-04-06T06:41:36.262Z,100959.14
2023-04-06T06:44:04.306Z,100957.40
2023-04-06T06:46:32.391Z,100955.27
2023-04-06T06:49:04.598Z,100951.27
2023-04-06T06:51:32.975Z,100949.96
2023-04-06T06:54:02.964Z,100949.42
2023-04-06T06:56:30.781Z,100953.89
2023-04-06T06:58:59.098Z,100950.09
2023-04-06T07:01:26.892Z,100945.13
2023-04-06T07:03:56.320Z,100943.31
2023-04-06T07:06:24.468Z,100946.94
2023-04-06T07:08:52.535Z,100950.88
2023-04-06T07:11:20.081Z,100948.60
2023-04-06T07:13:47.806Z,100946.98
2023-04-06T07:16:18.984Z,100945.23
2023-04-06T07:18:49.025Z,100949.39
2023-04-06T07:21:17.684Z,100942.65
2023-04-06T07:23:46.340Z,100947.38
2023-04-06T07:26:14.610Z,100945.08
2023-04-06T07:28:44.344Z,100940.75
2023-04-06T07:31:22.202Z,100939.07
2023-04-06T07:33:50.480Z,100934.58
2023-04-06T07:36:18.605Z,100937.39
2023-04-06T07:38:47.917Z,100940.31
2023-04-06T07:41:17.966Z,100940.36
2023-04-06T07:43:46.217Z,100934.90
2023-04-06T07:46:17.989Z,100937.62
2023-04-06T07:48:46.951Z,100940.61
2023-04-06T07:51:16.912Z,100941.67
2023-04-06T07:53:45.946Z,100938.58
2023-04-06T07:56:16.546Z,100935.70
2023-04-06T07:58:44.806Z,100932.99
2023-04-06T08:01:12.480Z,100931.27
2023-04-06T08:03:41.041Z,100931.09
2023-04-06T08:06:16.093Z,100925.23
2023-04-06T08:08:45.154Z,100925.07
2023-04-06T08:11:12.850Z,100932.77
2023-04-06T08:13:48.528Z,100925.16
2023-04-06T08:16:19.486Z,100925.07
2023-04-06T08:18:47.209Z,100926.31
2023-04-06T08:21:16.129Z,100922.96
2023-04-06T08:23:46.491Z,100921.44
2023-04-06T08:26:14.703Z,100925.05
2023-04-06T08:28:45.721Z,100917.94
2023-04-06T08:31:16.643Z,100917.35
2023-04-06T08:33:45.025Z,100918.48
2023-04-06T08:36:17.604Z,100922.35
2023-04-06T08:38:46.594Z,100922.88
2023-04-06T08:41:21.484Z,100916.23
2023-04-06T08:43:50.881Z,100914.39
2023-04-06T08:46:19.072Z,100912.18
2023-04-06T08:48:50.458Z,100912.27
2023-04-06T08:51:18.248Z,100911.45
2023-04-06T08:53:46.885Z,100914.62
2023-04-06T08:56:17.449Z,100916.02
2023-04-06T08:58:46.518Z,100914.86
2023-04-06T09:01:16.680Z,100913.17
2023-04-06T09:03:45.539Z,100910.70
2023-04-06T09:06:17.943Z,100905.41
2023-04-06T09:08:45.528Z,100911.05
2023-04-06T09:11:16.514Z,100912.38
2023-04-06T09:13:46.078Z,100911.60
2023-04-06T09:16:14.398Z,100908.91
2023-04-06T09:18:42.483Z,100900.73
2023-04-06T09:21:14.740Z,100900.79
2023-04-06T09:23:45.201Z,100902.99
2023-04-06T09:26:14.937Z,100898.21
2023-04-06T09:28:44.535Z,100894.63
2023-04-06T09:31:13.234Z,100892.95
2023-04-06T09:33:42.288Z,100891.59
2023-04-06T09:36:12.558Z,100895.54
2023-04-06T09:38:52.257Z,100889.03
2023-04-06T09:41:22.407Z,100884.54
2023-04-06T09:43:51.085Z,100883.34
2023-04-06T09:46:21.626Z,100879.04
2023-04-06T09:48:53.587Z,100876.92
2023-04-06T09:51:21.403Z,100877.67
2023-04-06T09:53:53.061Z,100875.06
2023-04-06T09:56:24.461Z,100869.10
2023-04-06T09:58:55.928Z,100869.38
2023-04-06T10:01:27.021Z,100867.02
2023-04-06T10:04:01.644Z,100866.99
2023-04-06T10:06:33.798Z,100869.98
2023-04-06T10:09:02.748Z,100869.55
2023-04-06T10:11:31.339Z,100869.48
2023-04-06T10:13:59.235Z,100869.40
2023-04-06T10:16:28.347Z,100867.48
2023-04-06T10:18:57.492Z,100857.77
2023-04-06T10:21:27.142Z,100852.44
2023-04-06T10:23:58.945Z,100851.84
2023-04-06T10:26:26.795Z,100849.13
2023-04-06T10:28:55.113Z,100850.65
2023-04-06T10:31:26.928Z,100851.92
2023-04-06T10:33:55.996Z,100849.61
2023-04-06T10:36:25.582Z,100849.08
2023-04-06T10:38:56.771Z,100845.75
2023-04-06T10:41:26.113Z,100841.27
2023-04-06T10:43:57.436Z,100835.45
2023-04-06T10:46:29.812Z,100829.44
2023-04-06T10:48:58.092Z,100829.36
2023-04-06T10:51:28.667Z,100825.92
2023-04-06T10:53:57.625Z,100829.08
2023-04-06T10:56:28.495Z,100825.73
2023-04-06T10:58:56.735Z,100820.66
2023-04-06T11:01:28.327Z,100821.67
2023-04-06T11:03:58.747Z,100819.33
2023-04-06T11:06:29.585Z,100818.40
2023-04-06T11:08:58.090Z,100815.41
2023-04-06T11:11:27.652Z,100812.36
2023-04-06T11:13:56.644Z,100810.57
2023-04-06T11:16:26.608Z,100810.42
2023-04-06T11:18:56.011Z,100809.85
2023-04-06T11:21:33.794Z,100810.44
2023-04-06T11:24:12.003Z,100801.25
2023-04-06T11:26:44.187Z,100800.23
2023-04-06T11:29:13.905Z,100800.10
2023-04-06T11:31:42.215Z,100795.45
2023-04-06T11:34:13.471Z,100794.29
2023-04-06T11:36:42.523Z,100792.23
2023-04-06T11:39:14.016Z,100789.40
2023-04-06T11:41:41.550Z,100783.85
2023-04-06T11:44:10.034Z,100778.78
2023-04-06T11:46:40.331Z,100780.89
2023-04-06T11:49:07.972Z,100783.45
2023-04-06T11:51:37.502Z,100780.81
2023-04-06T11:54:05.179Z,100781.84
2023-04-06T11:56:32.940Z,100780.61
2023-04-06T11:59:03.684Z,100771.30
2023-04-06T12:01:38.826Z,100769.66
2023-04-06T12:04:07.198Z,100768.85
2023-04-06T12:06:35.635Z,100767.13
2023-04-06T12:09:03.316Z,100763.21
2023-04-06T12:11:31.313Z,100758.83
2023-04-06T12:14:02.018Z,100751.80
2023-04-06T12:16:30.173Z,100747.86
2023-04-06T12:18:57.903Z,100747.48
2023-04-06T12:21:25.654Z,100745.89
2023-04-06T12:23:53.278Z,100743.27
2023-04-06T12:26:21.322Z,100735.05
2023-04-06T12:28:49.281Z,100731.29
2023-04-06T12:31:18.405Z,100724.31
2023-04-06T12:33:51.325Z,100720.39
2023-04-06T12:36:20.807Z,100719.90
2023-04-06T12:38:48.979Z,100722.08
2023-04-06T12:41:17.849Z,100727.98
2023-04-06T12:43:45.871Z,100734.02
2023-04-06T12:46:18.557Z,100736.24
2023-04-06T12:48:46.615Z,100727.95
2023-04-06T12:51:16.102Z,100729.34
2023-04-06T12:53:45.691Z,100726.09
2023-04-06T12:56:14.984Z,100727.71
2023-04-06T12:58:42.806Z,100719.96
2023-04-06T13:01:13.245Z,100714.13
2023-04-06T13:03:42.470Z,100716.21
2023-04-06T13:06:15.262Z,100716.42
2023-04-06T13:08:43.232Z,100716.33
2023-04-06T13:11:12.809Z,100715.09
2023-04-06T13:13:40.389Z,100714.49
2023-04-06T13:16:10.596Z,100716.16
2023-04-06T13:18:40.261Z,100710.63
2023-04-06T13:21:10.105Z,100706.13
2023-04-06T13:23:40.891Z,100705.07
2023-04-06T13:26:16.575Z,100697.96
2023-04-06T13:28:49.078Z,100694.29
2023-04-06T13:31:16.722Z,100688.84
2023-04-06T13:33:46.208Z,100683.66
2023-04-06T13:36:18.125Z,100682.45
2023-04-06T13:38:47.238Z,100667.80
2023-04-06T13:41:21.357Z,100668.35
2023-04-06T13:43:48.926Z,100667.77
2023-04-06T13:46:20.270Z,100669.22
2023-04-06T13:48:48.438Z,100676.13
2023-04-06T13:51:16.694Z,100683.08
2023-04-06T13:53:46.574Z,100679.10
2023-04-06T13:56:14.913Z,100667.69
2023-04-06T13:58:43.253Z,100664.35
2023-04-06T14:01:12.304Z,100665.71
2023-04-06T14:03:42.374Z,100664.39
2023-04-06T14:06:29.694Z,100664.73
2023-04-06T14:08:58.610Z,100657.63
2023-04-06T14:11:26.725Z,100655.55
2023-04-06T14:13:56.521Z,100656.19
2023-04-06T14:16:25.915Z,100655.94
2023-04-06T14:18:53.714Z,100654.70
2023-04-06T14:21:21.554Z,100657.02
2023-04-06T14:23:49.515Z,100652.29
2023-04-06T14:26:18.568Z,100649.33
2023-04-06T14:28:46.861Z,100636.16
2023-04-06T14:31:16.598Z,100632.17
2023-04-06T14:33:46.944Z,100633.94
2023-04-06T14:36:18.822Z,100637.45
2023-04-06T14:38:48.011Z,100639.80
2023-04-06T14:41:20.613Z,100643.69
2023-04-06T14:43:48.719Z,100643.08
2023-04-06T14:46:17.257Z,100648.80
2023-04-06T14:48:48.030Z,100648.38
2023-04-06T14:51:17.074Z,100655.00
2023-04-06T14:53:47.148Z,100651.17
2023-04-06T14:56:20.993Z,100647.95
2023-04-06T14:58:48.972Z,100642.75
2023-04-06T15:01:18.853Z,100639.86
2023-04-06T15:03:46.784Z,100633.42
2023-04-06T15:06:20.968Z,100634.34
2023-04-06T15:08:49.380Z,100628.88
2023-04-06T15:11:17.047Z,100626.83
2023-04-06T15:13:46.558Z,100628.58
2023-04-06T15:16:15.827Z,100629.24
2023-04-06T15:18:43.717Z,100628.33
2023-04-06T15:21:14.656Z,100631.60
2023-04-06T15:23:42.980Z,100630.96
2023-04-06T15:26:16.502Z,100636.09
2023-04-06T15:28:45.149Z,100629.04
2023-04-06T15:31:35.918Z,100633.69
2023-04-06T15:34:04.687Z,100635.15
2023-04-06T15:36:33.467Z,100633.55
2023-04-06T15:39:06.799Z,100634.80
2023-04-06T15:41:35.238Z,100629.85
2023-04-06T15:44:04.144Z,100627.26
2023-04-06T15:46:32.380Z,100624.25
2023-04-06T15:49:03.671Z,100622.17
2023-04-06T15:51:33.065Z,100613.95
2023-04-06T15:54:03.141Z,100611.90
2023-04-06T15:56:33.297Z,100614.77
2023-04-06T15:59:04.450Z,100618.73
2023-04-06T16:01:33.413Z,100622.70
2023-04-06T16:04:02.560Z,100622.04
2023-04-06T16:06:32.074Z,100624.14
2023-04-06T16:08:59.836Z,100621.80
2023-04-06T16:11:32.345Z,100619.65
2023-04-06T16:14:01.120Z,100619.22
2023-04-06T16:16:29.544Z,100613.48
2023-04-06T16:19:02.765Z,100614.73
2023-04-06T16:21:31.040Z,100619.61
2023-04-06T16:24:01.935Z,100622.59
2023-04-06T16:26:31.267Z,100622.71
2023-04-06T16:28:59.081Z,100618.48
2023-04-06T16:31:27.051Z,100619.09
2023-04-06T16:33:56.405Z,100620.82
2023-04-06T16:36:24.984Z,100621.23
2023-04-06T16:38:52.994Z,100617.85
2023-04-06T16:41:22.713Z,100616.42
2023-04-06T16:43:55.630Z,100610.52
2023-04-06T16:46:32.638Z,100605.20
2023-04-06T16:49:04.943Z,100603.15
2023-04-06T16:51:40.378Z,100603.08
2023-04-06T16:54:08.790Z,100599.71
2023-04-06T16:56:39.222Z,100606.05
2023-04-06T16:59:11.804Z,100612.25
2023-04-06T17:01:42.172Z,100610.25
2023-04-06T17:04:12.416Z,100609.48
2023-04-06T17:06:51.079Z,100608.43
2023-04-06T17:09:25.392Z,100605.48
2023-04-06T17:11:58.992Z,100609.48
2023-04-06T17:14:29.384Z,100618.71
2023-04-06T17:17:07.323Z,100621.55
2023-04-06T17:19:46.104Z,100619.96
2023-04-06T17:22:21.385Z,100621.17
2023-04-06T17:24:56.103Z,100620.75
2023-04-06T17:27:26.291Z,100619.21
2023-04-06T17:29:55.317Z,100616.08
2023-04-06T17:32:23.251Z,100615.17
2023-04-06T17:34:51.357Z,100611.92
2023-04-06T17:37:20.634Z,100616.22
2023-04-06T17:39:48.558Z,100617.17
2023-04-06T17:42:18.707Z,100618.94
2023-04-06T17:44:51.549Z,100617.80
2023-04-06T17:47:21.505Z,100618.95
2023-04-06T17:49:49.329Z,100618.33
2023-04-06T17:52:17.178Z,100622.07
2023-04-06T17:54:47.650Z,100629.21
2023-04-06T17:57:15.848Z,100631.61
2023-04-06T17:59:49.076Z,100630.65
2023-04-06T18:02:17.308Z,100621.56
2023-04-06T18:04:45.864Z,100620.58
2023-04-06T18:07:15.525Z,100618.89
2023-04-06T18:09:45.823Z,100616.79
2023-04-06T18:12:13.909Z,100618.52
2023-04-06T18:14:41.973Z,100621.84
2023-04-06T18:17:11.338Z,100620.14
2023-04-06T18:19:39.417Z,100615.89
2023-04-06T18:22:07.153Z,100612.95
2023-04-06T18:24:42.105Z,100609.40
2023-04-06T18:27:13.551Z,100608.86
2023-04-06T18:29:46.989Z,100608.78
2023-04-06T18:32:20.679Z,100609.32
2023-04-06T18:34:57.180Z,100611.52
2023-04-06T18:37:43.504Z,100604.67
2023-04-06T18:40:43.719Z,100605.90
2023-04-06T18:43:45.863Z,100608.97
2023-04-06T18:46:24.736Z,100602.70
2023-04-06T18:48:55.746Z,100607.25
2023-04-06T18:51:28.109Z,100605.02
2023-04-06T18:53:56.127Z,100602.62
2023-04-06T18:56:25.875Z,100598.21
2023-04-06T18:58:53.658Z,100600.17
2023-04-06T19:01:22.022Z,100602.95
2023-04-06T19:03:51.126Z,100601.26
2023-04-06T19:06:20.212Z,100600.39
2023-04-06T19:08:48.287Z,100600.92
2023-04-06T19:11:17.270Z,100599.64
2023-04-06T19:13:49.444Z,100595.45
2023-04-06T19:16:19.249Z,100593.24
2023-04-06T19:18:47.666Z,100594.20
2023-04-06T19:21:20.359Z,100596.41
2023-04-06T19:23:59.950Z,100588.09
2023-04-06T19:26:59.183Z,100582.23
2023-04-06T19:29:49.776Z,100580.05
2023-04-06T19:32:26.025Z,100577.39
2023-04-06T19:35:08.016Z,100579.48
2023-04-06T19:37:40.623Z,100583.83
2023-04-06T19:40:28.987Z,100580.86
2023-04-06T19:43:20.340Z,100574.81
2023-04-06T19:45:57.968Z,100578.21
2023-04-06T19:48:40.337Z,100578.56
2023-04-06T19:51:11.907Z,100574.75
2023-04-06T19:53:39.687Z,100574.71
2023-04-06T19:56:07.497Z,100572.11
2023-04-06T19:58:37.697Z,100569.61
2023-04-06T20:01:05.496Z,100563.05
2023-04-06T20:03:36.187Z,100564.38
2023-04-06T20:06:06.128Z,100569.33
2023-04-06T20:08:33.952Z,100572.36
2023-04-06T20:11:15.907Z,100569.36
2023-04-06T20:13:43.844Z,100567.61
2023-04-06T20:16:15.006Z,100560.23
2023-04-06T20:18:42.771Z,100559.39
2023-04-06T20:21:12.556Z,100558.80
2023-04-06T20:23:41.040Z,100557.55
2023-04-06T20:26:10.646Z,100554.97
2023-04-06T20:28:39.754Z,100552.89
2023-04-06T20:31:11.824Z,100552.48
2023-04-06T20:33:39.711Z,100553.80
2023-04-06T20:36:11.248Z,100557.69
2023-04-06T20:38:39.988Z,100558.30
2023-04-06T20:41:10.296Z,100544.17
2023-04-06T20:43:38.524Z,100544.72
2023-04-06T20:46:07.304Z,100541.88
2023-04-06T20:48:37.676Z,100545.33
2023-04-06T20:51:05.628Z,100542.59
2023-04-06T20:53:33.399Z,100544.42
2023-04-06T20:56:03.868Z,100544.94
2023-04-06T20:58:32.126Z,100547.72
2023-04-06T21:01:00.756Z,100537.64
2023-04-06T21:03:29.072Z,100542.83
2023-04-06T21:05:59.304Z,100539.23
2023-04-06T21:08:27.403Z,100539.48
2023-04-06T21:10:55.392Z,100547.14
2023-04-06T21:13:23.316Z,100547.64
2023-04-06T21:15:53.234Z,100549.31
2023-04-06T21:18:21.189Z,100549.96
2023-04-06T21:20:49.267Z,100552.98
2023-04-06T21:23:16.986Z,100549.77
2023-04-06T21:25:47.259Z,100551.04
2023-04-06T21:28:14.950Z,100544.43
2023-04-06T21:30:43.450Z,100540.63
2023-04-06T21:33:11.466Z,100535.02
2023-04-06T21:35:39.640Z,100535.38
2023-04-06T21:38:07.747Z,100534.14
2023-04-06T21:40:35.784Z,100532.96
2023-04-06T21:43:03.535Z,100531.34
2023-04-06T21:45:32.502Z,100525.89
2023-04-06T21:48:00.288Z,100521.54
2023-04-06T21:50:28.011Z,100510.53
2023-04-06T21:52:55.582Z,100503.52
2023-04-06T21:55:23.470Z,100508.23
2023-04-06T21:57:51.085Z,100503.89
2023-04-06T22:00:20.731Z,100502.71
2023-04-06T22:02:48.431Z,100502.41
2023-04-06T22:05:16.328Z,100500.58
2023-04-06T22:07:45.302Z,100496.55
2023-04-06T22:10:12.772Z,100492.37
2023-04-06T22:12:40.490Z,100487.89
2023-04-06T22:15:11.476Z,100486.79
2023-04-06T22:17:39.261Z,100484.64
2023-04-06T22:20:07.389Z,100478.64
2023-04-06T22:22:35.012Z,100480.86
2023-04-06T22:25:03.234Z,100479.41
2023-04-06T22:27:30.792Z,100477.52
2023-04-06T22:29:58.411Z,100475.08
2023-04-06T22:32:26.346Z,100482.22
2023-04-06T22:34:54.207Z,100483.85
2023-04-06T22:37:22.072Z,100476.66
2023-04-06T22:39:49.905Z,100482.44
2023-04-06T22:42:18.458Z,100482.48
2023-04-06T22:44:46.037Z,100473.70
2023-04-06T22:47:13.852Z,100469.75
2023-04-06T22:49:41.515Z,100468.91
2023-04-06T22:52:09.167Z,100460.39
2023-04-06T22:54:36.772Z,100459.61
2023-04-06T22:57:04.443Z,100456.58
2023-04-06T22:59:31.967Z,100456.93
2023-04-06T23:01:59.908Z,100460.83
2023-04-06T23:04:28.246Z,100453.43
2023-04-06T23:06:56.330Z,100446.27
2023-04-06T23:09:24.128Z,100445.38
2023-04-06T23:11:51.647Z,100436.83
2023-04-06T23:14:20.073Z,100435.73
2023-04-06T23:16:47.755Z,100439.63
2023-04-06T23:19:15.425Z,100443.48
2023-04-06T23:21:43.123Z,100436.84
2023-04-06T23:24:10.804Z,100439.97
2023-04-06T23:26:38.446Z,100442.83
2023-04-06T23:29:06.058Z,100435.83
2023-04-06T23:31:33.769Z,100438.95
2023-04-06T23:34:01.745Z,100436.99
2023-04-06T23:36:29.541Z,100433.41
2023-04-06T23:38:57.244Z,100436.86
2023-04-06T23:41:25.812Z,100428.93
2023-04-06T23:43:53.417Z,100422.88
2023-04-06T23:46:21.238Z,100421.84
2023-04-06T23:48:49.137Z,100422.64
2023-04-06T23:51:16.694Z,100416.73
2023-04-06T23:53:45.999Z,100409.96
2023-04-06T23:56:15.814Z,100406.13
2023-04-06T23:58:43.316Z,100408.80
